Time;durP1;ratioP1;P1;durP2;ratioP2;P2;SDS_P1;SDS_P2;PMS_P1;PMS_P2;Temp;Humidity;BMP_temperature;BMP_pressure;BME280_temperature;BME280_humidity;BME280_pressure;Samples;Min_cycle;Max_cycle;Signal;HPM_P1;HPM_P2
2023/04/18 00:00:20;;;;;;;16.75;11.07;;;6.00;1.00;;;;;;5073307;28;20044;-25
2023/04/18 00:02:46;;;;;;;17.08;11.55;;;6.10;1.00;;;;;;5073885;28;20486;-26
2023/04/18 00:05:12;;;;;;;17.98;10.32;;;6.10;1.00;;;;;;5073316;28;20045;-25
2023/04/18 00:07:38;;;;;;;17.73;11.52;;;6.20;1.00;;;;;;5073185;28;20045;-25
2023/04/18 00:10:05;;;;;;;16.88;11.00;;;6.20;1.00;;;;;;5073211;28;20053;-25
2023/04/18 00:12:33;;;;;;;17.38;10.60;;;6.10;1.00;;;;;;5055323;28;20049;-25
2023/04/18 00:14:59;;;;;;;17.65;10.10;;;6.10;64.10;;;;;;5076244;28;20047;-25
2023/04/18 00:17:26;;;;;;;15.88;10.00;;;6.20;70.30;;;;;;5059359;28;20056;-25
2023/04/18 00:19:55;;;;;;;17.83;10.10;;;6.10;99.90;;;;;;5077787;28;20040;-25
2023/04/18 00:22:21;;;;;;;16.85;10.43;;;6.00;99.90;;;;;;5058986;28;20131;-25
2023/04/18 00:24:48;;;;;;;16.98;11.13;;;6.20;99.90;;;;;;5077416;28;20105;-25
2023/04/18 00:27:18;;;;;;;14.65;10.10;;;6.10;99.90;;;;;;5076726;28;20041;-25
2023/04/18 00:29:43;;;;;;;14.05;10.25;;;6.20;99.90;;;;;;5076691;28;20041;-25
2023/04/18 00:32:09;;;;;;;15.32;9.63;;;6.20;99.90;;;;;;5077293;28;20055;-25
2023/04/18 00:34:35;;;;;;;13.55;9.57;;;6.20;99.90;;;;;;5059107;28;20384;-25
2023/04/18 00:37:01;;;;;;;13.77;8.98;;;6.20;99.90;;;;;;5077269;28;20479;-25
2023/04/18 00:39:27;;;;;;;13.82;9.40;;;6.20;99.90;;;;;;5077418;28;20071;-26
2023/04/18 00:41:52;;;;;;;15.25;10.35;;;6.20;99.90;;;;;;5076838;28;20076;-25
2023/04/18 00:44:18;;;;;;;15.85;9.38;;;6.20;99.90;;;;;;5076728;28;20040;-25
2023/04/18 00:46:44;;;;;;;13.50;9.32;;;6.20;99.90;;;;;;5058662;28;20040;-25
2023/04/18 00:49:11;;;;;;;13.10;8.75;;;6.20;1.00;;;;;;5076943;28;20048;-25
2023/04/18 00:51:38;;;;;;;13.57;8.45;;;6.20;99.90;;;;;;5077170;28;20106;-25
2023/04/18 00:54:06;;;;;;;14.75;9.05;;;6.20;99.90;;;;;;5076322;28;20048;-25
2023/04/18 00:56:34;;;;;;;14.95;9.35;;;6.20;99.90;;;;;;5076289;28;20036;-25
2023/04/18 00:59:00;;;;;;;13.98;8.35;;;6.20;99.90;;;;;;5076302;28;20048;-25
2023/04/18 01:01:26;;;;;;;13.93;8.23;;;6.20;1.00;;;;;;5076189;28;20051;-25
2023/04/18 01:03:52;;;;;;;16.50;8.52;;;6.20;99.90;;;;;;5076168;28;20048;-25
2023/04/18 01:06:18;;;;;;;13.30;8.00;;;6.20;99.90;;;;;;5076004;28;20059;-25
2023/04/18 01:08:44;;;;;;;12.32;7.80;;;6.20;99.90;;;;;;5076867;28;20055;-25
2023/04/18 01:11:10;;;;;;;13.40;8.27;;;6.20;99.90;;;;;;5076018;28;20056;-25
2023/04/18 01:13:36;;;;;;;14.55;8.68;;;6.00;99.90;;;;;;5058101;28;20044;-25
2023/04/18 01:16:01;;;;;;;9.40;7.75;;;6.00;1.00;;;;;;5076862;28;20517;-25
2023/04/18 01:18:30;;;;;;;15.50;8.10;;;6.00;1.00;;;;;;5058044;28;20067;-25
2023/04/18 01:20:58;;;;;;;12.30;8.45;;;6.00;1.00;;;;;;5075847;28;20048;-25
2023/04/18 01:23:25;;;;;;;12.00;7.40;;;6.00;1.00;;;;;;5075804;28;20406;-25
2023/04/18 01:25:51;;;;;;;11.88;8.38;;;6.00;1.00;;;;;;5075577;28;20353;-25
2023/04/18 01:28:18;;;;;;;13.40;8.23;;;5.90;1.00;;;;;;5075663;28;20036;-25
2023/04/18 01:30:44;;;;;;;11.63;8.27;;;6.00;1.00;;;;;;5075961;28;20110;-25
2023/04/18 01:33:10;;;;;;;13.02;8.48;;;6.00;1.00;;;;;;5057960;28;20474;-25
2023/04/18 01:35:36;;;;;;;10.77;7.75;;;6.00;1.00;;;;;;5075602;28;20110;-25
2023/04/18 01:38:02;;;;;;;13.25;8.23;;;6.00;1.00;;;;;;5075161;28;20115;-25
2023/04/18 01:40:28;;;;;;;12.38;8.05;;;6.00;1.00;;;;;;5075538;28;20190;-25
2023/04/18 01:42:54;;;;;;;13.18;8.32;;;6.00;1.00;;;;;;5075413;28;20055;-25
2023/04/18 01:45:21;;;;;;;13.68;8.57;;;6.00;1.00;;;;;;5075439;28;20048;-25
2023/04/18 01:47:47;;;;;;;12.35;8.57;;;6.00;1.00;;;;;;5057580;28;20044;-25
2023/04/18 01:50:13;;;;;;;11.20;7.60;;;6.00;1.00;;;;;;5057410;28;20386;-25
2023/04/18 01:52:38;;;;;;;12.50;7.75;;;5.90;1.00;;;;;;5057728;28;20178;-25
2023/04/18 01:55:05;;;;;;;11.20;6.97;;;5.80;1.00;;;;;;5074861;28;20051;-25
2023/04/18 01:57:31;;;;;;;11.38;7.00;;;5.80;1.00;;;;;;5057491;28;20479;-25
2023/04/18 01:59:57;;;;;;;10.32;7.38;;;5.90;1.00;;;;;;5075328;28;20070;-25
2023/04/18 02:02:23;;;;;;;11.65;7.28;;;5.90;1.00;;;;;;5075551;28;20473;-25
2023/04/18 02:04:49;;;;;;;12.18;7.22;;;5.90;1.00;;;;;;5057105;28;20050;-25
2023/04/18 02:07:14;;;;;;;9.68;6.78;;;5.90;1.00;;;;;;5074867;28;20136;-25
2023/04/18 02:09:40;;;;;;;14.00;7.28;;;5.80;1.00;;;;;;5075113;28;20482;-25
2023/04/18 02:12:06;;;;;;;10.45;6.78;;;5.80;1.00;;;;;;5057300;28;20055;-25
2023/04/18 02:14:34;;;;;;;12.25;6.70;;;5.80;1.00;;;;;;5041185;28;20086;-26
2023/04/18 02:16:59;;;;;;;8.35;5.97;;;5.80;1.00;;;;;;5074747;28;20128;-25
2023/04/18 02:19:27;;;;;;;11.38;7.35;;;5.80;1.00;;;;;;5057600;28;20454;-25
2023/04/18 02:21:53;;;;;;;10.65;6.72;;;5.80;1.00;;;;;;5074653;28;20088;-25
2023/04/18 02:24:18;;;;;;;10.05;6.30;;;5.80;99.90;;;;;;5056779;28;20052;-25
2023/04/18 02:26:44;;;;;;;12.05;6.28;;;5.70;99.90;;;;;;5057348;28;20040;-25
2023/04/18 02:29:10;;;;;;;9.52;6.00;;;5.70;1.00;;;;;;5057311;28;20071;-25
2023/04/18 02:31:38;;;;;;;8.30;5.70;;;5.80;1.00;;;;;;5074422;28;20508;-25
2023/04/18 02:34:04;;;;;;;8.13;5.68;;;5.80;99.90;;;;;;5074078;28;20475;-25
2023/04/18 02:36:29;;;;;;;9.15;6.25;;;5.90;99.90;;;;;;5056596;28;20052;-25
2023/04/18 02:38:56;;;;;;;9.77;5.93;;;5.90;99.90;;;;;;5039756;28;20056;-25
2023/04/18 02:41:22;;;;;;;9.80;5.88;;;5.90;99.90;;;;;;5056482;28;20041;-25
2023/04/18 02:43:47;;;;;;;10.02;6.00;;;6.00;99.90;;;;;;5023559;28;20056;-25
2023/04/18 02:46:13;;;;;;;8.25;5.93;;;6.00;1.00;;;;;;5074059;28;20043;-25
2023/04/18 02:48:39;;;;;;;10.55;6.05;;;6.10;99.90;;;;;;5074165;28;20478;-25
2023/04/18 02:51:05;;;;;;;10.60;7.10;;;6.10;99.90;;;;;;5074088;28;20466;-25
2023/04/18 02:53:32;;;;;;;9.73;5.93;;;6.20;1.00;;;;;;5056425;28;20047;-25
2023/04/18 02:55:58;;;;;;;9.07;6.25;;;6.10;1.00;;;;;;5074604;28;20044;-25
2023/04/18 02:58:23;;;;;;;8.95;5.75;;;6.20;1.00;;;;;;5056197;28;20462;-25
2023/04/18 03:00:52;;;;;;;8.32;5.57;;;6.30;1.00;;;;;;5023189;28;20052;-25
2023/04/18 03:03:17;;;;;;;8.40;5.32;;;6.30;1.00;;;;;;5073936;28;20075;-25
2023/04/18 03:05:43;;;;;;;11.40;5.88;;;6.40;1.00;;;;;;5073853;28;20470;-25
2023/04/18 03:08:09;;;;;;;10.50;6.28;;;6.40;1.00;;;;;;5073917;28;20147;-25
2023/04/18 03:10:35;;;;;;;10.98;6.32;;;6.50;1.00;;;;;;5073836;28;20375;-25
2023/04/18 03:13:01;;;;;;;13.32;6.50;;;6.50;1.00;;;;;;5073881;28;20047;-25
2023/04/18 03:15:27;;;;;;;11.50;6.68;;;6.50;1.00;;;;;;5074345;28;20048;-25
2023/04/18 03:17:52;;;;;;;7.57;5.97;;;6.50;1.00;;;;;;5056056;28;20055;-25
2023/04/18 03:20:18;;;;;;;10.60;6.30;;;6.60;1.00;;;;;;5056421;28;20045;-25
2023/04/18 03:22:44;;;;;;;10.10;6.35;;;6.60;1.00;;;;;;5055865;28;20048;-25
2023/04/18 03:25:10;;;;;;;9.57;5.60;;;6.60;1.00;;;;;;5055819;28;20548;-25
2023/04/18 03:27:35;;;;;;;8.57;6.15;;;6.60;99.90;;;;;;5073472;28;20051;-25
2023/04/18 03:30:02;;;;;;;8.20;6.10;;;6.60;1.00;;;;;;5073618;28;20123;-25
2023/04/18 03:32:28;;;;;;;9.32;5.50;;;6.60;99.90;;;;;;5074108;28;20057;-25
2023/04/18 03:34:53;;;;;;;11.23;6.20;;;6.70;99.90;;;;;;5073858;28;20044;-25
2023/04/18 03:37:19;;;;;;;8.40;5.65;;;6.60;99.90;;;;;;5073555;28;20036;-25
2023/04/18 03:39:45;;;;;;;8.88;6.18;;;6.70;99.90;;;;;;5055110;28;20486;-25
2023/04/18 03:42:10;;;;;;;10.00;6.55;;;6.70;99.90;;;;;;5055697;28;20047;-25
2023/04/18 03:44:36;;;;;;;14.07;5.72;;;6.70;99.90;;;;;;5073541;28;20049;-25
2023/04/18 03:47:02;;;;;;;8.10;5.53;;;6.70;99.90;;;;;;5055732;28;20048;-25
2023/04/18 03:49:28;;;;;;;9.57;5.88;;;6.70;99.90;;;;;;5057848;28;20055;-25
2023/04/18 03:51:53;;;;;;;7.15;4.93;;;6.70;99.90;;;;;;5077564;28;20051;-25
2023/04/18 03:54:19;;;;;;;13.02;4.47;;;6.70;99.90;;;;;;5026788;28;20085;-26
2023/04/18 03:56:45;;;;;;;9.23;5.22;;;6.70;99.90;;;;;;5077458;28;20045;-26
2023/04/18 03:59:11;;;;;;;10.77;5.38;;;6.70;99.90;;;;;;5077398;28;20051;-25
2023/04/18 04:01:37;;;;;;;10.00;5.97;;;6.70;99.90;;;;;;5059472;28;20044;-25
2023/04/18 04:04:03;;;;;;;7.25;5.03;;;6.70;99.90;;;;;;5059387;28;20486;-25
2023/04/18 04:06:30;;;;;;;8.70;5.95;;;6.70;99.90;;;;;;5077160;28;20044;-25
2023/04/18 04:08:56;;;;;;;12.18;6.78;;;6.70;99.90;;;;;;5059598;28;20094;-25
2023/04/18 04:11:22;;;;;;;7.75;5.75;;;6.80;99.90;;;;;;5059548;28;20044;-25
2023/04/18 04:13:48;;;;;;;8.95;5.75;;;6.80;99.90;;;;;;5059704;28;20071;-26
2023/04/18 04:16:14;;;;;;;12.57;5.97;;;6.80;99.90;;;;;;5077049;28;20056;-25
2023/04/18 04:18:39;;;;;;;7.82;5.65;;;6.80;99.90;;;;;;5077004;28;20090;-25
2023/04/18 04:21:05;;;;;;;8.48;5.63;;;6.80;99.90;;;;;;5026209;28;20494;-25
2023/04/18 04:23:32;;;;;;;8.50;5.97;;;6.80;99.90;;;;;;5059353;28;20131;-25
2023/04/18 04:26:01;;;;;;;10.60;5.28;;;6.80;99.90;;;;;;5076759;28;20067;-25
2023/04/18 04:28:27;;;;;;;10.02;5.78;;;6.80;99.90;;;;;;5077604;28;20056;-25
2023/04/18 04:30:54;;;;;;;8.73;5.95;;;6.90;99.90;;;;;;5058947;28;20052;-25
2023/04/18 04:33:24;;;;;;;10.38;5.65;;;6.90;99.90;;;;;;5059094;28;20057;-25
2023/04/18 04:35:51;;;;;;;10.25;5.80;;;6.90;99.90;;;;;;5076675;28;20493;-25
2023/04/18 04:38:18;;;;;;;11.52;6.60;;;6.90;99.90;;;;;;5058747;28;20044;-25
2023/04/18 04:40:45;;;;;;;8.60;5.82;;;6.90;99.90;;;;;;5077243;28;20101;-25
2023/04/18 04:43:15;;;;;;;8.63;6.35;;;6.90;99.90;;;;;;5058899;28;20444;-25
2023/04/18 04:45:44;;;;;;;14.23;6.18;;;6.90;99.90;;;;;;5077033;28;20049;-25
2023/04/18 04:48:10;;;;;;;10.30;6.68;;;7.00;99.90;;;;;;5059067;28;20518;-25
2023/04/18 04:50:37;;;;;;;8.70;6.18;;;7.00;99.90;;;;;;5058748;28;20095;-25
2023/04/18 04:53:07;;;;;;;11.30;6.75;;;7.00;99.90;;;;;;5058776;28;20053;-25
2023/04/18 04:55:33;;;;;;;13.82;7.53;;;7.00;99.90;;;;;;5058480;28;20047;-25
2023/04/18 04:57:59;;;;;;;9.93;7.22;;;7.10;99.90;;;;;;5076346;28;20179;-25
2023/04/18 05:00:25;;;;;;;10.80;6.95;;;7.10;99.90;;;;;;5057226;28;20119;-25
2023/04/18 05:02:52;;;;;;;10.60;7.60;;;7.10;99.90;;;;;;5075934;28;20048;-25
2023/04/18 05:05:18;;;;;;;9.10;6.28;;;7.10;99.90;;;;;;5076142;28;20067;-25
2023/04/18 05:07:44;;;;;;;12.95;7.43;;;7.10;99.90;;;;;;5058274;28;20383;-25
2023/04/18 05:10:10;;;;;;;11.27;7.05;;;7.10;99.90;;;;;;5076049;28;20051;-25
2023/04/18 05:12:35;;;;;;;11.80;8.32;;;7.10;99.90;;;;;;5076036;28;20078;-25
2023/04/18 05:15:01;;;;;;;11.65;7.50;;;7.20;99.90;;;;;;5042617;28;20407;-25
2023/04/18 05:17:27;;;;;;;12.27;7.93;;;7.20;99.90;;;;;;5076783;28;20040;-25
2023/04/18 05:19:53;;;;;;;9.95;7.88;;;7.20;99.90;;;;;;5058210;28;20098;-25
2023/04/18 05:22:18;;;;;;;9.30;7.55;;;7.20;99.90;;;;;;5058232;28;20058;-25
2023/04/18 05:24:45;;;;;;;10.35;7.75;;;7.20;99.90;;;;;;5042090;28;20135;-25
2023/04/18 05:27:13;;;;;;;11.18;7.95;;;7.20;99.90;;;;;;5075704;28;20540;-25
2023/04/18 05:29:39;;;;;;;13.70;7.45;;;7.20;99.90;;;;;;5075655;28;20083;-25
2023/04/18 05:32:05;;;;;;;14.18;7.90;;;7.30;99.90;;;;;;5075738;28;20087;-25
2023/04/18 05:34:34;;;;;;;11.90;8.68;;;7.30;99.90;;;;;;5058040;28;20052;-26
2023/04/18 05:37:00;;;;;;;12.45;8.77;;;7.30;99.90;;;;;;5058134;28;20067;-26
2023/04/18 05:39:26;;;;;;;12.43;7.85;;;7.30;99.90;;;;;;5057301;28;20451;-25
2023/04/18 05:41:52;;;;;;;11.60;8.07;;;7.40;99.90;;;;;;5075083;28;20049;-25
2023/04/18 05:44:18;;;;;;;13.70;8.65;;;7.40;99.90;;;;;;5075959;28;20055;-25
2023/04/18 05:46:44;;;;;;;11.25;8.55;;;7.50;99.90;;;;;;5057445;28;20044;-26
2023/04/18 05:49:10;;;;;;;14.70;8.80;;;7.50;99.90;;;;;;5075350;28;20052;-25
2023/04/18 05:51:36;;;;;;;15.60;9.05;;;7.60;99.90;;;;;;5075298;28;20045;-25
2023/04/18 05:54:03;;;;;;;12.77;8.18;;;7.60;99.90;;;;;;5074894;28;20105;-26
2023/04/18 05:56:29;;;;;;;14.43;8.38;;;7.70;99.90;;;;;;5075174;28;20048;-25
2023/04/18 05:58:55;;;;;;;13.35;8.25;;;7.70;99.90;;;;;;5075128;28;20048;-25
2023/04/18 06:01:21;;;;;;;13.63;8.13;;;7.80;1.00;;;;;;5057309;28;20044;-25
2023/04/18 06:03:46;;;;;;;12.23;7.60;;;7.80;1.00;;;;;;5075581;28;20132;-25
2023/04/18 06:06:12;;;;;;;12.02;8.63;;;7.80;1.00;;;;;;5074924;28;20098;-25
2023/04/18 06:08:38;;;;;;;15.93;9.32;;;7.90;1.00;;;;;;5075456;28;20056;-25
2023/04/18 06:11:04;;;;;;;11.98;7.82;;;7.90;99.90;;;;;;5074110;28;20441;-26
2023/04/18 06:13:31;;;;;;;11.18;7.82;;;7.90;99.90;;;;;;5075384;28;20378;-25
2023/04/18 06:15:57;;;;;;;12.55;7.03;;;8.10;99.90;;;;;;5075074;28;20165;-25
2023/04/18 06:18:23;;;;;;;11.05;7.05;;;8.30;99.90;;;;;;5075261;28;20072;-26
2023/04/18 06:20:48;;;;;;;10.30;6.72;;;8.40;1.00;;;;;;5075033;28;20425;-25
2023/04/18 06:23:14;;;;;;;12.32;6.65;;;8.40;1.00;;;;;;5075174;28;20386;-26
2023/04/18 06:25:41;;;;;;;13.50;7.45;;;8.20;99.90;;;;;;5074520;28;20052;-26
2023/04/18 06:28:06;;;;;;;11.90;7.50;;;8.30;1.00;;;;;;5074475;28;20474;-25
2023/04/18 06:30:32;;;;;;;13.02;7.35;;;8.20;99.90;;;;;;5074533;28;20051;-26
2023/04/18 06:32:58;;;;;;;13.35;7.25;;;8.20;99.90;;;;;;5056594;28;20055;-26
2023/04/18 06:35:24;;;;;;;10.70;7.00;;;8.20;99.90;;;;;;5074392;28;20041;-25
2023/04/18 06:37:49;;;;;;;11.20;7.03;;;8.20;73.40;;;;;;5040057;28;20045;-25
2023/04/18 06:40:15;;;;;;;7.60;6.00;;;8.20;1.00;;;;;;5074886;28;20060;-25
2023/04/18 06:42:42;;;;;;;9.90;7.55;;;8.10;1.00;;;;;;5056683;28;20513;-25
2023/04/18 06:45:10;;;;;;;11.30;7.28;;;8.10;39.50;;;;;;5056458;28;20055;-25
2023/04/18 06:47:37;;;;;;;10.27;7.53;;;8.10;99.90;;;;;;5039768;28;20040;-25
2023/04/18 06:50:04;;;;;;;10.70;7.40;;;8.10;99.90;;;;;;5075007;28;20453;-25
2023/04/18 06:52:29;;;;;;;9.60;5.78;;;8.20;99.90;;;;;;5073816;28;20509;-25
2023/04/18 06:54:55;;;;;;;10.20;6.65;;;8.20;1.00;;;;;;5074634;28;20044;-25
2023/04/18 06:57:21;;;;;;;13.10;7.07;;;8.20;1.00;;;;;;5074076;28;20535;-25
2023/04/18 06:59:46;;;;;;;9.88;6.40;;;8.20;1.00;;;;;;5074071;28;20048;-25
2023/04/18 07:02:12;;;;;;;10.65;6.97;;;8.20;1.00;;;;;;5023618;28;20067;-25
2023/04/18 07:04:38;;;;;;;11.52;7.22;;;8.30;1.00;;;;;;5073990;28;20170;-25
2023/04/18 07:07:04;;;;;;;12.68;7.50;;;8.30;1.00;;;;;;5055918;28;20493;-25
2023/04/18 07:09:30;;;;;;;12.48;7.68;;;8.30;1.00;;;;;;5073864;28;20040;-26
2023/04/18 07:11:56;;;;;;;14.90;9.40;;;8.40;1.00;;;;;;5073820;28;20058;-25
2023/04/18 07:14:23;;;;;;;9.27;7.40;;;8.50;1.00;;;;;;5074064;28;20044;-26
2023/04/18 07:16:49;;;;;;;13.40;7.70;;;8.60;1.00;;;;;;5056083;28;20608;-25
2023/04/18 07:19:16;;;;;;;10.52;7.57;;;8.70;1.00;;;;;;5073800;28;20494;-26
2023/04/18 07:21:42;;;;;;;11.13;7.70;;;8.70;99.90;;;;;;5073740;28;20119;-26
2023/04/18 07:24:09;;;;;;;12.95;6.97;;;8.80;1.00;;;;;;5073747;28;20145;-26
2023/04/18 07:26:35;;;;;;;10.35;7.05;;;8.90;1.00;;;;;;5073604;28;20048;-25
2023/04/18 07:29:01;;;;;;;15.38;7.13;;;8.90;99.90;;;;;;5073552;28;20045;-26
2023/04/18 07:31:27;;;;;;;9.50;7.22;;;8.90;99.90;;;;;;5073573;28;20040;-27
2023/04/18 07:33:54;;;;;;;10.35;7.05;;;9.00;99.90;;;;;;5073611;28;20053;-26
2023/04/18 07:36:20;;;;;;;11.23;6.70;;;9.10;99.90;;;;;;5074159;28;20099;-27
2023/04/18 07:38:47;;;;;;;14.15;7.25;;;9.10;99.90;;;;;;5052069;28;20077;-25
2023/04/18 07:41:13;;;;;;;10.23;6.32;;;9.20;99.90;;;;;;5052386;28;20102;-26
2023/04/18 07:43:39;;;;;;;12.00;7.13;;;9.30;99.90;;;;;;5052253;28;20048;-27
2023/04/18 07:46:08;;;;;;;13.75;8.02;;;9.30;99.90;;;;;;5053233;28;20114;-25
2023/04/18 07:48:33;;;;;;;12.88;7.40;;;9.40;99.90;;;;;;5053401;28;20051;-25
2023/04/18 07:50:59;;;;;;;10.10;7.10;;;9.40;99.90;;;;;;5052994;28;20037;-26
2023/04/18 07:53:25;;;;;;;9.95;6.60;;;9.50;99.90;;;;;;5053931;28;20387;-27
2023/04/18 07:55:51;;;;;;;9.38;6.50;;;9.60;99.90;;;;;;5053887;28;20045;-26
2023/04/18 07:58:16;;;;;;;12.40;6.47;;;9.70;99.90;;;;;;5053417;28;20049;-25
2023/04/18 08:00:43;;;;;;;11.73;7.00;;;9.80;1.00;;;;;;5052100;28;20084;-26
2023/04/18 08:03:10;;;;;;;9.27;6.88;;;9.80;8.70;;;;;;5053303;28;20088;-26
2023/04/18 08:05:38;;;;;;;22.20;9.82;;;9.80;1.00;;;;;;5053016;28;20526;-26
2023/04/18 08:08:08;;;;;;;12.57;6.72;;;9.90;1.00;;;;;;5018919;28;20041;-26
2023/04/18 08:10:35;;;;;;;11.27;6.97;;;10.00;1.00;;;;;;5053829;28;20049;-25
2023/04/18 08:13:01;;;;;;;11.85;6.75;;;10.10;1.00;;;;;;5053185;28;20274;-25
2023/04/18 08:15:27;;;;;;;10.02;6.47;;;10.10;1.00;;;;;;5053225;28;20049;-26
2023/04/18 08:17:54;;;;;;;12.10;6.70;;;10.10;1.00;;;;;;5052216;28;20044;-26
2023/04/18 08:20:20;;;;;;;10.48;7.00;;;10.20;99.90;;;;;;5052156;28;20387;-27
2023/04/18 08:22:46;;;;;;;12.35;7.28;;;10.30;99.90;;;;;;5052680;28;20116;-27
2023/04/18 08:25:12;;;;;;;12.18;7.22;;;10.30;99.90;;;;;;5018842;28;20045;-26
2023/04/18 08:27:37;;;;;;;11.00;6.03;;;10.40;99.90;;;;;;5052888;28;20045;-25
2023/04/18 08:30:04;;;;;;;10.80;6.63;;;10.40;99.90;;;;;;5053553;28;20044;-25
2023/04/18 08:32:30;;;;;;;9.68;6.47;;;10.60;99.90;;;;;;5052057;28;20372;-26
2023/04/18 08:34:56;;;;;;;9.50;6.28;;;10.70;99.90;;;;;;5054401;28;20045;-27
2023/04/18 08:37:22;;;;;;;10.85;6.57;;;10.70;99.90;;;;;;5055609;28;20567;-26
2023/04/18 08:39:48;;;;;;;14.18;7.43;;;10.80;99.90;;;;;;5070247;28;20486;-26
2023/04/18 08:42:18;;;;;;;9.40;5.93;;;10.90;99.90;;;;;;5059023;28;20049;-27
2023/04/18 08:44:47;;;;;;;10.93;6.50;;;10.90;65.70;;;;;;5076599;28;20041;-27
2023/04/18 08:47:13;;;;;;;8.52;5.63;;;10.90;1.00;;;;;;5076144;28;20517;-27
2023/04/18 08:49:39;;;;;;;10.07;5.57;;;10.90;1.00;;;;;;5058892;28;20059;-26
2023/04/18 08:52:15;;;;;;;8.85;5.63;;;11.00;14.40;;;;;;5076451;28;20048;-25
2023/04/18 08:54:45;;;;;;;9.13;5.50;;;11.00;99.90;;;;;;5059058;28;20066;-27
2023/04/18 08:57:15;;;;;;;8.40;5.78;;;11.10;1.00;;;;;;5059529;28;20059;-26
2023/04/18 08:59:43;;;;;;;9.23;6.03;;;11.20;1.00;;;;;;5059519;28;20118;-27
2023/04/18 09:02:10;;;;;;;9.38;5.80;;;11.30;99.90;;;;;;5076243;28;20048;-27
2023/04/18 09:04:44;;;;;;;11.60;6.80;;;11.80;99.90;;;;;;5058562;28;20385;-27
2023/04/18 09:07:17;;;;;;;12.65;5.97;;;12.80;99.90;;;;;;5042621;28;20048;-27
2023/04/18 09:09:49;;;;;;;9.48;5.63;;;13.90;99.90;;;;;;5058362;28;20047;-27
2023/04/18 09:12:25;;;;;;;9.07;5.13;;;15.30;1.00;;;;;;5076133;28;20048;-26
2023/04/18 09:14:56;;;;;;;7.55;5.10;;;15.30;1.00;;;;;;5076429;28;20398;-27
2023/04/18 09:17:32;;;;;;;8.30;4.43;;;15.40;99.90;;;;;;5076869;28;20106;-27
2023/04/18 09:19:59;;;;;;;7.65;4.57;;;15.10;99.90;;;;;;5076204;28;20127;-27
2023/04/18 09:22:25;;;;;;;8.48;4.88;;;14.90;99.90;;;;;;5075928;28;20102;-27
2023/04/18 09:24:56;;;;;;;6.90;4.85;;;14.80;99.90;;;;;;5076211;28;20056;-27
2023/04/18 09:27:23;;;;;;;7.93;4.45;;;15.00;99.90;;;;;;5075781;28;20047;-27
2023/04/18 09:29:50;;;;;;;7.95;5.25;;;15.00;99.90;;;;;;5057394;28;20044;-27
2023/04/18 09:32:25;;;;;;;7.40;4.20;;;15.30;99.90;;;;;;5075677;28;20056;-27
2023/04/18 09:35:00;;;;;;;7.90;4.80;;;15.50;99.90;;;;;;5075667;28;20127;-27
2023/04/18 09:37:27;;;;;;;11.02;5.57;;;15.80;99.90;;;;;;5076443;28;20122;-25
2023/04/18 09:39:53;;;;;;;11.52;5.25;;;16.00;99.90;;;;;;5075377;28;20114;-24
2023/04/18 09:42:20;;;;;;;7.18;4.80;;;16.00;99.90;;;;;;5056279;28;20044;-24
2023/04/18 09:45:13;;;;;;;7.28;4.45;;;16.30;99.90;;;;;;5074701;28;20098;-24
2023/04/18 09:47:39;;;;;;;8.45;4.78;;;16.60;99.90;;;;;;5071361;28;20048;-24
2023/04/18 09:50:07;;;;;;;6.60;4.80;;;16.60;99.90;;;;;;5057474;28;20376;-25
2023/04/18 09:52:35;;;;;;;5.00;4.07;;;16.90;99.90;;;;;;5073086;28;20048;-25
2023/04/18 09:55:03;;;;;;;8.73;4.45;;;17.10;99.90;;;;;;5075805;28;20045;-25
2023/04/18 09:57:31;;;;;;;5.07;3.63;;;17.20;99.90;;;;;;5075508;28;20184;-25
2023/04/18 10:00:15;;;;;;;6.40;4.45;;;17.00;99.90;;;;;;5075182;28;20044;-25
2023/04/18 10:02:49;;;;;;;5.85;4.10;;;16.90;99.90;;;;;;5073248;28;20115;-24
2023/04/18 10:05:15;;;;;;;5.85;3.72;;;17.30;99.90;;;;;;5074823;28;20063;-25
2023/04/18 10:07:45;;;;;;;6.70;4.35;;;17.10;99.90;;;;;;5074976;28;20052;-25
2023/04/18 10:10:11;;;;;;;6.63;4.07;;;17.30;99.90;;;;;;5057321;28;20490;-25
2023/04/18 10:12:38;;;;;;;4.95;3.85;;;17.10;99.90;;;;;;5038979;28;20066;-24
2023/04/18 10:15:06;;;;;;;6.15;4.68;;;17.10;99.90;;;;;;5078037;28;20387;-25
2023/04/18 10:17:51;;;;;;;6.35;3.55;;;17.20;99.90;;;;;;5040410;28;20040;-25
2023/04/18 10:20:19;;;;;;;6.72;4.50;;;17.50;99.90;;;;;;5055169;28;20399;-25
2023/04/18 10:22:46;;;;;;;5.65;4.00;;;17.80;99.90;;;;;;5076350;28;20378;-25
2023/04/18 10:25:12;;;;;;;6.57;4.20;;;17.40;99.90;;;;;;5077517;28;20056;-25
2023/04/18 10:27:47;;;;;;;9.30;4.25;;;17.10;93.80;;;;;;5074448;28;20376;-25
2023/04/18 10:30:17;;;;;;;6.72;3.65;;;17.10;94.60;;;;;;5057797;28;20044;-25
2023/04/18 10:32:44;;;;;;;6.93;3.47;;;17.10;99.90;;;;;;5074509;28;20045;-25
2023/04/18 10:35:10;;;;;;;7.20;3.65;;;17.50;99.90;;;;;;5054230;28;20457;-25
2023/04/18 10:37:49;;;;;;;6.18;4.00;;;17.20;99.90;;;;;;5073968;28;20076;-25
2023/04/18 10:40:16;;;;;;;7.25;4.03;;;17.50;91.90;;;;;;5056412;28;20102;-25
2023/04/18 10:42:51;;;;;;;7.13;3.92;;;17.50;99.70;;;;;;5074626;28;20080;-25
2023/04/18 10:45:20;;;;;;;6.13;4.32;;;17.60;97.40;;;;;;5040729;28;20044;-25
2023/04/18 10:47:46;;;;;;;8.73;4.25;;;17.30;94.20;;;;;;5072343;28;20036;-25
2023/04/18 10:50:13;;;;;;;5.25;3.95;;;17.20;96.50;;;;;;5074186;28;20050;-25
2023/04/18 10:52:38;;;;;;;6.90;3.95;;;17.80;99.90;;;;;;5074116;28;20055;-26
2023/04/18 10:55:04;;;;;;;8.50;4.43;;;17.80;99.90;;;;;;5056265;28;20048;-25
2023/04/18 10:57:40;;;;;;;6.57;4.60;;;17.70;99.90;;;;;;5056270;28;20044;-25
2023/04/18 11:00:10;;;;;;;7.40;4.65;;;17.60;99.90;;;;;;5054132;28;20047;-24
2023/04/18 11:02:37;;;;;;;5.45;4.32;;;18.40;99.90;;;;;;5054573;28;20482;-25
2023/04/18 11:05:06;;;;;;;9.07;5.95;;;18.70;99.90;;;;;;5082200;28;20109;-25
2023/04/18 11:07:43;;;;;;;8.82;4.43;;;19.40;99.90;;;;;;5076966;28;20044;-25
2023/04/18 11:10:09;;;;;;;8.27;4.53;;;18.90;99.90;;;;;;5076898;28;20055;-25
2023/04/18 11:12:40;;;;;;;4.53;3.70;;;19.20;99.90;;;;;;5073884;28;20072;-25
2023/04/18 11:15:20;;;;;;;5.45;4.10;;;19.30;99.90;;;;;;5039935;28;20048;-26
2023/04/18 11:17:54;;;;;;;5.85;4.20;;;18.90;99.90;;;;;;5073846;28;20040;-25
2023/04/18 11:20:20;;;;;;;4.60;4.00;;;19.10;99.90;;;;;;5071964;28;20402;-25
2023/04/18 11:22:50;;;;;;;6.35;4.18;;;19.10;99.90;;;;;;5085148;28;20074;-25
2023/04/18 11:25:16;;;;;;;5.25;3.40;;;19.10;99.90;;;;;;5093957;28;20052;-25
2023/04/18 11:27:43;;;;;;;5.15;3.75;;;19.60;99.90;;;;;;5074818;28;20398;-25
2023/04/18 11:30:10;;;;;;;7.50;3.90;;;18.80;96.50;;;;;;5061899;28;20485;-25
2023/04/18 11:32:36;;;;;;;5.97;4.10;;;18.70;99.90;;;;;;5087395;28;20119;-24
2023/04/18 11:35:02;;;;;;;5.88;3.90;;;18.90;99.90;;;;;;5054999;28;20124;-25
2023/04/18 11:37:28;;;;;;;6.95;4.38;;;18.90;96.10;;;;;;5072490;28;20052;-25
2023/04/18 11:39:54;;;;;;;4.85;3.00;;;19.00;97.20;;;;;;5083977;28;20059;-25
2023/04/18 11:42:24;;;;;;;5.40;3.38;;;19.20;96.10;;;;;;5077022;28;20052;-25
2023/04/18 11:44:50;;;;;;;5.80;3.22;;;18.80;82.70;;;;;;5073816;28;20133;-25
2023/04/18 11:47:32;;;;;;;7.05;3.42;;;18.60;88.00;;;;;;5055639;28;20079;-25
2023/04/18 11:50:00;;;;;;;5.40;3.75;;;18.30;65.50;;;;;;5074095;28;20053;-25
2023/04/18 11:52:30;;;;;;;4.60;3.30;;;18.50;84.50;;;;;;5071938;28;20045;-25
2023/04/18 11:55:16;;;;;;;4.30;2.58;;;18.40;66.90;;;;;;5055532;28;20060;-25
2023/04/18 11:57:48;;;;;;;5.22;3.20;;;18.50;91.40;;;;;;5074079;28;20099;-26
2023/04/18 12:00:14;;;;;;;7.50;2.90;;;18.20;80.40;;;;;;5056072;28;20048;-26
2023/04/18 12:02:41;;;;;;;3.85;2.60;;;18.20;66.90;;;;;;5069741;28;20154;-24
2023/04/18 12:05:09;;;;;;;4.55;2.80;;;18.20;90.00;;;;;;5065722;28;20049;-25
2023/04/18 12:07:40;;;;;;;5.22;2.83;;;18.50;99.90;;;;;;5074029;28;20047;-26
2023/04/18 12:10:30;;;;;;;5.07;3.35;;;18.60;97.00;;;;;;5074871;28;20122;-25
2023/04/18 12:12:59;;;;;;;3.55;2.88;;;18.80;99.90;;;;;;5085435;28;20043;-25
2023/04/18 12:15:26;;;;;;;3.90;2.35;;;18.70;93.40;;;;;;5089127;28;20048;-25
2023/04/18 12:17:57;;;;;;;3.85;2.78;;;18.50;99.90;;;;;;5077122;28;20048;-26
2023/04/18 12:20:23;;;;;;;4.50;2.53;;;18.50;94.40;;;;;;5077097;28;20047;-26
2023/04/18 12:22:51;;;;;;;3.20;2.65;;;18.10;86.10;;;;;;5076985;28;20055;-25
2023/04/18 12:25:22;;;;;;;4.20;2.63;;;17.40;50.10;;;;;;5076291;28;20386;-25
2023/04/18 12:28:23;;;;;;;4.88;2.92;;;17.00;44.30;;;;;;5073334;28;20044;-25
2023/04/18 12:30:49;;;;;;;4.45;2.30;;;17.20;70.60;;;;;;5053031;28;20437;-23
2023/04/18 12:33:15;;;;;;;3.90;2.50;;;17.60;99.10;;;;;;5070227;28;20048;-25
2023/04/18 12:35:41;;;;;;;4.75;2.60;;;18.40;99.90;;;;;;5068069;28;20044;-25
2023/04/18 12:38:07;;;;;;;5.10;2.90;;;19.00;99.90;;;;;;5076540;28;20036;-26
2023/04/18 12:40:32;;;;;;;3.45;2.30;;;19.00;99.90;;;;;;5076807;28;20464;-25
2023/04/18 12:42:58;;;;;;;4.07;2.60;;;18.40;81.90;;;;;;5076580;28;20486;-26
2023/04/18 12:45:24;;;;;;;5.00;2.85;;;17.80;89.20;;;;;;5076558;28;20045;-26
2023/04/18 12:47:51;;;;;;;3.17;2.60;;;17.50;90.00;;;;;;5075634;28;20094;-25
2023/04/18 12:50:22;;;;;;;4.85;2.42;;;17.00;28.70;;;;;;5077132;28;20044;-26